War, West Virginia
Current Conditions -  °F | °C
As of 11:35 AM on Tuesday 21 Oct 2014 (Local Time) from KJFZ Reporting Station
Overcast Overcast  
Wind Chill: 55°   Ceiling: 1200
Heat Index: 55°   Visibility: 10mi
Dew Point: 49°   Wind: 9mph
Humidity: 83%   Direction: 280°W
Pressure: 29.98"   Gusts: NA
Location:  37.3°N, 81.69°W
Report Text: KJFZ 211535Z AUTO 28008KT 10SM BKN012 BKN018 OVC024 13/10 A2998 RMK AO2 T01250096
Loading
Personal Weather Stations






























Interactive Weather Map
Tropical Storm Tracking
New forecast layout! Learn more

10-Day Weather Forecast

Advertisements
Track Severe Weather on mobile